Terminal Aerodrome Forecast
Issued by NWS Sioux Falls, SD

Home | Current Version | Previous Version | Text Only | Print | Product List | Glossary On
Versions: 1 2 3 4 5 6 7 8 9 10 11 12 13
000
FTUS43 KFSD 231150
TAFHON
TAF
KHON 231150Z 2312/2412 15012KT P6SM -SHRA SCT015 OVC060
     FM231400 15014G22KT P6SM -SHRA SCT008 OVC015
     FM231800 14015G24KT P6SM OVC015
     FM240200 15008KT P6SM BKN040=

USA.gov is the U.S. government's official web portal to all federal, state and local government web resources and services.